createdAt,value
2018-12-11T00:04:12.829Z,100938.59
2018-12-11T00:09:08.845Z,100950.80
2018-12-11T00:14:04.889Z,100941.73
2018-12-11T00:19:01.098Z,100945.95
2018-12-11T00:23:57.189Z,100942.20
2018-12-11T00:28:53.283Z,100942.48
2018-12-11T00:33:49.293Z,100935.08
2018-12-11T00:38:45.317Z,100930.54
2018-12-11T00:43:41.427Z,100925.07
2018-12-11T00:48:37.481Z,100918.47
2018-12-11T00:53:33.512Z,100923.56
2018-12-11T00:58:29.545Z,100933.29
2018-12-11T01:03:25.672Z,100941.20
2018-12-11T01:08:21.697Z,100942.23
2018-12-11T01:13:17.737Z,100945.84
2018-12-11T01:18:13.761Z,100952.05
2018-12-11T01:23:09.800Z,100949.94
2018-12-11T01:28:05.826Z,100957.45
2018-12-11T01:33:01.840Z,100947.60
2018-12-11T01:37:57.870Z,100953.59
2018-12-11T01:42:54.012Z,100954.02
2018-12-11T01:47:50.045Z,100948.54
2018-12-11T01:52:46.079Z,100953.05
2018-12-11T01:57:42.114Z,100953.81
2018-12-11T02:02:38.914Z,100962.75
2018-12-11T02:07:34.933Z,100956.66
2018-12-11T02:12:30.957Z,100953.14
2018-12-11T02:17:27.008Z,100953.62
2018-12-11T02:22:23.032Z,100960.62
2018-12-11T02:27:19.130Z,100964.97
2018-12-11T02:32:19.504Z,100962.02
2018-12-11T02:37:15.549Z,100966.64
2018-12-11T02:42:11.606Z,100972.83
2018-12-11T02:47:07.668Z,100962.08
2018-12-11T02:52:03.693Z,100970.77
2018-12-11T02:56:59.713Z,100973.31
2018-12-11T03:01:57.243Z,100965.05
2018-12-11T03:06:53.327Z,100975.94
2018-12-11T03:11:49.346Z,100979.96
2018-12-11T03:16:45.445Z,100978.17
2018-12-11T03:21:42.787Z,100962.31
2018-12-11T03:26:38.869Z,100969.13
2018-12-11T03:31:36.857Z,100961.33
2018-12-11T03:36:32.990Z,100964.22
2018-12-11T03:41:29.238Z,100965.22
2018-12-11T03:46:25.251Z,100968.81
2018-12-11T03:51:21.293Z,100968.05
2018-12-11T03:56:17.345Z,100974.55
2018-12-11T04:01:13.452Z,100972.99
2018-12-11T04:06:09.498Z,100975.87
2018-12-11T04:11:05.514Z,100964.53
2018-12-11T04:16:01.622Z,100967.94
2018-12-11T04:20:57.674Z,100965.05
2018-12-11T04:25:53.705Z,100964.98
2018-12-11T04:30:49.885Z,100972.47
2018-12-11T04:35:46.011Z,100970.14
2018-12-11T04:40:42.065Z,100968.53
2018-12-11T04:45:38.102Z,100970.66
2018-12-11T04:50:34.142Z,100981.55
2018-12-11T04:55:30.261Z,100990.48
2018-12-11T05:00:26.297Z,100971.80
2018-12-11T05:05:22.339Z,100975.48
2018-12-11T05:10:18.373Z,100977.20
2018-12-11T05:15:14.444Z,100981.09
2018-12-11T05:20:10.498Z,100973.23
2018-12-11T05:25:06.649Z,100972.00
2018-12-11T05:30:04.109Z,100975.90
2018-12-11T05:35:00.225Z,100982.69
2018-12-11T05:39:56.266Z,100984.71
2018-12-11T05:44:52.294Z,100983.63
2018-12-11T05:49:48.334Z,100975.56
2018-12-11T05:54:45.194Z,100977.95
2018-12-11T05:59:41.233Z,100977.30
2018-12-11T06:04:37.239Z,100979.95
2018-12-11T06:09:33.283Z,100979.00
2018-12-11T06:14:29.358Z,100977.73
2018-12-11T06:19:25.386Z,100982.13
2018-12-11T06:24:21.400Z,100983.92
2018-12-11T06:29:17.457Z,100986.30
2018-12-11T06:34:13.544Z,101000.33
2018-12-11T06:39:09.614Z,100995.20
2018-12-11T06:44:05.670Z,101006.30
2018-12-11T06:49:01.733Z,101005.31
2018-12-11T06:53:57.784Z,101010.25
2018-12-11T06:58:53.842Z,101007.16
2018-12-11T07:03:49.901Z,101006.52
2018-12-11T07:08:45.977Z,101012.84
2018-12-11T07:13:42.103Z,101018.77
2018-12-11T07:18:38.233Z,101032.52
2018-12-11T07:23:34.336Z,101027.58
2018-12-11T07:28:30.428Z,101028.27
2018-12-11T07:33:26.498Z,101027.03
2018-12-11T07:38:22.580Z,101040.52
2018-12-11T07:43:18.651Z,101040.83
2018-12-11T07:48:14.757Z,101052.88
2018-12-11T07:53:10.865Z,101047.22
2018-12-11T07:58:06.929Z,101053.78
2018-12-11T08:03:03.005Z,101042.91
2018-12-11T08:07:59.044Z,101045.16
2018-12-11T08:12:55.121Z,101049.14
2018-12-11T08:17:51.151Z,101055.16
2018-12-11T08:22:47.186Z,101059.20
2018-12-11T08:27:43.254Z,101053.79
2018-12-11T08:32:39.950Z,101053.11
2018-12-11T08:37:36.004Z,101052.82
2018-12-11T08:42:32.066Z,101055.48
2018-12-11T08:47:28.173Z,101049.73
2018-12-11T08:52:24.234Z,101040.16
2018-12-11T08:57:20.449Z,101040.39
2018-12-11T09:02:21.357Z,101043.94
2018-12-11T09:07:17.422Z,101045.02
2018-12-11T09:12:13.476Z,101053.89
2018-12-11T09:17:10.483Z,101052.60
2018-12-11T09:22:06.780Z,101049.51
2018-12-11T09:27:02.874Z,101058.73
2018-12-11T09:31:59.906Z,101066.97
2018-12-11T09:36:56.084Z,101069.38
2018-12-11T09:41:52.293Z,101079.05
2018-12-11T09:46:48.411Z,101072.55
2018-12-11T09:51:44.538Z,101073.77
2018-12-11T09:56:41.471Z,101076.78
2018-12-11T10:01:38.455Z,101074.97
2018-12-11T10:06:36.374Z,101085.83
2018-12-11T10:11:34.564Z,101083.28
2018-12-11T10:16:31.275Z,101079.17
2018-12-11T10:21:27.409Z,101068.74
2018-12-11T10:26:23.598Z,101075.48
2018-12-11T10:31:19.666Z,101078.28
2018-12-11T10:36:15.896Z,101071.14
2018-12-11T10:41:12.109Z,101058.83
2018-12-11T10:46:08.190Z,101071.64
2018-12-11T10:51:04.501Z,101065.44
2018-12-11T10:56:00.570Z,101062.69
2018-12-11T11:01:02.852Z,101076.68
2018-12-11T11:05:58.947Z,101075.23
2018-12-11T11:11:02.038Z,101068.38
2018-12-11T11:15:58.084Z,101067.72
2018-12-11T11:20:54.154Z,101062.86
2018-12-11T11:25:50.310Z,101063.08
2018-12-11T11:30:46.398Z,101069.80
2018-12-11T11:35:43.793Z,101065.98
2018-12-11T11:40:40.097Z,101064.22
2018-12-11T11:45:36.624Z,101052.19
2018-12-11T11:50:34.621Z,101067.62
2018-12-11T11:55:32.033Z,101055.22
2018-12-11T12:00:29.156Z,101059.28
2018-12-11T12:05:25.625Z,101053.48
2018-12-11T12:10:21.849Z,101054.20
2018-12-11T12:15:18.046Z,101060.14
2018-12-11T12:20:14.209Z,101070.00
2018-12-11T12:25:10.370Z,101072.25
2018-12-11T12:30:06.851Z,101075.47
2018-12-11T12:35:03.510Z,101071.84
2018-12-11T12:39:59.766Z,101078.28
2018-12-11T12:44:55.977Z,101071.88
2018-12-11T12:49:52.174Z,101064.31
2018-12-11T12:54:48.230Z,101065.93
2018-12-11T12:59:44.295Z,101067.59
2018-12-11T13:04:40.446Z,101066.65
2018-12-11T13:09:36.517Z,101069.32
2018-12-11T13:14:32.610Z,101067.99
2018-12-11T13:19:28.649Z,101070.86
2018-12-11T13:24:24.735Z,101068.25
2018-12-11T13:29:20.825Z,101067.73
2018-12-11T13:34:16.912Z,101059.58
2018-12-11T13:39:13.116Z,101065.55
2018-12-11T13:44:09.412Z,101060.00
2018-12-11T13:49:05.945Z,101073.03
2018-12-11T13:54:02.009Z,101071.44
2018-12-11T13:58:58.087Z,101072.09
2018-12-11T14:03:54.263Z,101076.17
2018-12-11T14:08:50.393Z,101081.19
2018-12-11T14:13:46.503Z,101082.93
2018-12-11T14:18:42.638Z,101081.97
2018-12-11T14:23:38.807Z,101089.74
2018-12-11T14:28:35.009Z,101095.23
2018-12-11T14:33:31.092Z,101095.14
2018-12-11T14:38:27.180Z,101093.34
2018-12-11T14:43:23.329Z,101098.78
2018-12-11T14:48:20.199Z,101100.89
2018-12-11T14:53:16.347Z,101102.20
2018-12-11T14:58:12.408Z,101093.27
2018-12-11T15:03:08.718Z,101101.36
2018-12-11T15:08:04.787Z,101097.59
2018-12-11T15:13:01.104Z,101101.24
2018-12-11T15:17:57.198Z,101105.95
2018-12-11T15:22:53.499Z,101107.34
2018-12-11T15:27:49.595Z,101100.32
2018-12-11T15:32:46.462Z,101102.55
2018-12-11T15:37:42.530Z,101107.14
2018-12-11T15:42:38.645Z,101105.16
2018-12-11T15:47:34.721Z,101108.26
2018-12-11T15:52:30.752Z,101109.75
2018-12-11T15:57:26.818Z,101112.63
2018-12-11T16:02:23.560Z,101111.17
2018-12-11T16:07:19.590Z,101114.67
2018-12-11T16:12:15.640Z,101117.89
2018-12-11T16:17:11.687Z,101124.29
2018-12-11T16:22:07.695Z,101123.60
2018-12-11T16:27:03.829Z,101124.33
2018-12-11T16:32:06.668Z,101127.92
2018-12-11T16:37:02.872Z,101128.89
2018-12-11T16:41:58.929Z,101138.36
2018-12-11T16:46:54.980Z,101141.63
2018-12-11T16:51:51.002Z,101144.77
2018-12-11T16:56:47.022Z,101142.55
2018-12-11T17:01:43.070Z,101156.39
2018-12-11T17:06:39.218Z,101156.24
2018-12-11T17:11:35.426Z,101161.42
2018-12-11T17:16:31.492Z,101173.88
2018-12-11T17:21:27.570Z,101176.54
2018-12-11T17:26:23.756Z,101185.77
2018-12-11T17:31:19.802Z,101194.08
2018-12-11T17:36:15.854Z,101189.87
2018-12-11T17:41:12.329Z,101194.69
2018-12-11T17:46:08.359Z,101198.34
2018-12-11T17:51:04.716Z,101200.10
2018-12-11T17:56:00.734Z,101202.31
2018-12-11T18:00:56.908Z,101206.06
2018-12-11T18:05:52.945Z,101211.56
2018-12-11T18:10:48.989Z,101208.64
2018-12-11T18:15:45.117Z,101208.38
2018-12-11T18:20:41.326Z,101208.30
2018-12-11T18:25:37.361Z,101203.52
2018-12-11T18:30:33.447Z,101210.98
2018-12-11T18:35:29.783Z,101217.41
2018-12-11T18:40:26.999Z,101221.38
2018-12-11T18:45:29.023Z,101215.58
2018-12-11T18:50:30.678Z,101228.31
2018-12-11T18:55:26.760Z,101228.19
2018-12-11T19:00:27.150Z,101223.14
2018-12-11T19:05:23.237Z,101224.73
2018-12-11T19:10:19.383Z,101227.20
2018-12-11T19:15:15.532Z,101227.13
2018-12-11T19:20:11.684Z,101217.31
2018-12-11T19:25:11.251Z,101219.92
2018-12-11T19:30:07.415Z,101228.14
2018-12-11T19:35:04.528Z,101229.80
2018-12-11T19:40:02.180Z,101237.25
2018-12-11T19:44:58.406Z,101240.34
2018-12-11T19:49:54.441Z,101238.77
2018-12-11T19:54:50.436Z,101244.70
2018-12-11T19:59:46.459Z,101247.30
2018-12-11T20:04:42.482Z,101249.77
2018-12-11T20:09:40.552Z,101251.29
2018-12-11T20:14:36.575Z,101258.08
2018-12-11T20:19:32.613Z,101252.11
2018-12-11T20:24:29.594Z,101258.96
2018-12-11T20:29:29.908Z,101255.69
2018-12-11T20:34:27.453Z,101256.56
2018-12-11T20:39:24.386Z,101256.48
2018-12-11T20:44:20.465Z,101261.22
2018-12-11T20:49:16.820Z,101264.48
2018-12-11T20:54:12.954Z,101264.82
2018-12-11T20:59:10.250Z,101265.39
2018-12-11T21:04:06.957Z,101266.36
2018-12-11T21:09:06.737Z,101270.19
2018-12-11T21:14:02.878Z,101272.30
2018-12-11T21:18:59.249Z,101267.86
2018-12-11T21:23:55.830Z,101285.23
2018-12-11T21:28:51.953Z,101281.92
2018-12-11T21:33:47.968Z,101289.05
2018-12-11T21:38:43.991Z,101299.73
2018-12-11T21:43:40.078Z,101297.36
2018-12-11T21:48:36.229Z,101304.09
2018-12-11T21:53:32.265Z,101299.88
2018-12-11T21:58:36.489Z,101294.42
2018-12-11T22:03:39.053Z,101300.12
2018-12-11T22:08:39.723Z,101299.03
2018-12-11T22:13:35.882Z,101307.60
2018-12-11T22:18:31.965Z,101306.88
2018-12-11T22:23:29.230Z,101305.17
2018-12-11T22:28:25.458Z,101302.39
2018-12-11T22:33:21.503Z,101303.88
2018-12-11T22:38:18.419Z,101312.44
2018-12-11T22:43:14.593Z,101315.83
2018-12-11T22:48:10.621Z,101319.14
2018-12-11T22:53:06.646Z,101321.19
2018-12-11T22:58:02.703Z,101323.25
2018-12-11T23:02:58.766Z,101323.55
2018-12-11T23:07:54.790Z,101323.75
2018-12-11T23:12:50.857Z,101323.91
2018-12-11T23:17:46.868Z,101325.38
2018-12-11T23:22:42.918Z,101327.39
2018-12-11T23:27:38.942Z,101333.73
2018-12-11T23:32:35.104Z,101333.64
2018-12-11T23:37:31.135Z,101341.39
2018-12-11T23:42:27.170Z,101343.00
2018-12-11T23:47:23.198Z,101334.84
2018-12-11T23:52:19.226Z,101334.69
2018-12-11T23:57:15.265Z,101328.23
